Time;durP1;ratioP1;P1;durP2;ratioP2;P2;SDS_P1;SDS_P2;PMS_P1;PMS_P2;Temp;Humidity;BMP_temperature;BMP_pressure;BME280_temperature;BME280_humidity;BME280_pressure;Samples;Min_cycle;Max_cycle;Signal;HPM_P1;HPM_P2
2022/12/02 00:00:54;;;;;;;50.10;20.73;;;;;;;3.67;100.00;101055.78;4986058;28;20052;-74
2022/12/02 00:03:23;;;;;;;49.90;20.17;;;;;;;3.63;100.00;101043.56;4984751;28;20054;-74
2022/12/02 00:05:54;;;;;;;45.00;20.25;;;;;;;3.67;100.00;101045.28;4977770;28;20117;-71
2022/12/02 00:08:27;;;;;;;49.80;21.10;;;;;;;3.53;100.00;101032.31;4988483;28;20139;-73
2022/12/02 00:10:55;;;;;;;50.78;21.33;;;;;;;3.66;100.00;101055.78;4981163;28;20042;-75
2022/12/02 00:13:28;;;;;;;46.25;21.23;;;;;;;3.65;100.00;101047.06;4987396;28;20082;-73
2022/12/02 00:16:03;;;;;;;48.58;21.88;;;;;;;3.66;100.00;101045.31;4982229;28;20462;-73
2022/12/02 00:18:30;;;;;;;46.95;19.90;;;;;;;3.68;100.00;101046.16;4980072;28;20458;-74
2022/12/02 00:20:57;;;;;;;45.60;20.70;;;;;;;3.61;100.00;101034.03;4980335;28;20125;-73
2022/12/02 00:23:26;;;;;;;49.08;22.67;;;;;;;3.54;100.00;101012.25;4985115;28;20054;-74
2022/12/02 00:25:53;;;;;;;43.75;21.00;;;;;;;3.69;100.00;101048.78;4970877;28;20173;-72
2022/12/02 00:28:20;;;;;;;49.75;20.10;;;;;;;3.70;100.00;101040.03;4982102;28;20515;-74
2022/12/02 00:30:47;;;;;;;47.03;20.83;;;;;;;3.59;100.00;101023.56;4984543;28;20070;-72
2022/12/02 00:33:14;;;;;;;51.42;21.05;;;;;;;3.63;100.00;101040.94;4978061;28;20069;-72
2022/12/02 00:35:41;;;;;;;49.30;21.67;;;;;;;3.58;100.00;101027.06;4979572;28;20046;-73
2022/12/02 00:38:07;;;;;;;52.50;21.45;;;;;;;3.43;100.00;101009.72;4979371;28;20058;-72
2022/12/02 00:40:34;;;;;;;52.50;21.08;;;;;;;3.58;100.00;101028.81;4981470;28;20679;-72
2022/12/02 00:48:40;;;;;;;54.70;22.38;;;;;;;3.54;100.00;101030.56;4965596;28;20621;-73
2022/12/02 00:51:07;;;;;;;53.13;22.30;;;;;;;3.41;100.00;101002.75;4983951;28;20502;-73
2022/12/02 00:53:33;;;;;;;47.20;20.67;;;;;;;3.49;100.00;101025.34;4985516;28;20464;-69
2022/12/02 00:56:00;;;;;;;54.92;22.13;;;;;;;3.55;100.00;101018.34;4979784;28;20532;-70
2022/12/02 00:58:27;;;;;;;52.92;21.58;;;;;;;3.53;100.00;101005.25;4987063;28;20120;-72
2022/12/02 01:00:53;;;;;;;49.28;22.08;;;;;;;3.40;100.00;100999.25;4990320;28;20054;-73
2022/12/02 01:03:20;;;;;;;51.88;22.00;;;;;;;3.49;100.00;101011.41;4991804;28;20894;-72
2022/12/02 01:05:46;;;;;;;50.25;21.77;;;;;;;3.47;100.00;101013.16;4981562;28;20053;-71
2022/12/02 01:08:13;;;;;;;51.85;21.55;;;;;;;3.49;100.00;101009.66;4980613;28;20038;-70
2022/12/02 01:10:42;;;;;;;51.22;22.05;;;;;;;3.26;100.00;100974.09;4988985;28;20058;-75
2022/12/02 01:13:08;;;;;;;55.15;23.23;;;;;;;3.37;100.00;100993.19;4986107;28;20500;-74
2022/12/02 01:15:35;;;;;;;49.50;22.13;;;;;;;3.46;100.00;101008.84;4982749;28;20513;-73
2022/12/02 01:18:01;;;;;;;50.63;21.58;;;;;;;3.42;100.00;101005.34;4982616;28;20053;-74
2022/12/02 01:20:28;;;;;;;52.63;22.90;;;;;;;3.38;100.00;100994.91;4981513;28;20134;-72
2022/12/02 01:22:55;;;;;;;52.60;22.88;;;;;;;3.38;100.00;100997.53;4989811;28;20149;-73
2022/12/02 01:25:21;;;;;;;54.90;24.25;;;;;;;3.36;100.00;101004.53;4979699;28;20061;-71
2022/12/02 01:27:48;;;;;;;54.83;23.58;;;;;;;3.38;100.00;101018.47;4977045;28;20050;-71
2022/12/02 01:30:14;;;;;;;53.13;23.30;;;;;;;3.36;100.00;101015.00;4986984;28;20065;-73
2022/12/02 01:32:41;;;;;;;48.90;22.05;;;;;;;3.33;100.00;101012.41;4987487;28;20444;-73
2022/12/02 01:35:08;;;;;;;52.08;22.40;;;;;;;3.34;100.00;101022.00;4985912;28;20081;-73
2022/12/02 01:37:34;;;;;;;55.88;22.40;;;;;;;3.28;100.00;101006.34;4976604;28;20415;-71
2022/12/02 01:40:03;;;;;;;52.40;22.70;;;;;;;3.27;100.00;101015.09;4985212;28;20050;-74
2022/12/02 01:42:29;;;;;;;53.40;22.95;;;;;;;3.28;100.00;101019.44;4984327;28;20085;-71
2022/12/02 01:44:56;;;;;;;53.40;23.10;;;;;;;3.27;100.00;101012.47;4986732;28;20050;-71
2022/12/02 01:47:24;;;;;;;56.58;24.45;;;;;;;3.29;100.00;101005.47;4976353;28;20042;-70
2022/12/02 01:49:51;;;;;;;55.70;24.13;;;;;;;3.31;100.00;101009.78;4984449;28;20046;-71
2022/12/02 01:52:18;;;;;;;58.22;22.58;;;;;;;3.13;100.00;100989.00;4984450;28;20433;-74
2022/12/02 01:54:45;;;;;;;54.10;23.50;;;;;;;3.32;100.00;101016.75;4980614;28;20074;-71
2022/12/02 01:57:14;;;;;;;57.97;23.27;;;;;;;3.32;100.00;101005.44;4977886;28;20043;-72
2022/12/02 01:59:42;;;;;;;56.60;23.05;;;;;;;3.32;100.00;101011.53;4982536;28;20056;-71
2022/12/02 02:02:28;;;;;;;61.03;24.25;;;;;;;3.35;100.00;101005.41;4987675;28;20052;-73
2022/12/02 02:12:24;;;;;;;59.75;24.88;;;;;;;3.37;100.00;101003.66;4979799;28;20199;-70
2022/12/02 02:14:51;;;;;;;62.05;24.45;;;;;;;3.28;100.00;101004.59;4981735;28;20056;-72
2022/12/02 02:17:19;;;;;;;62.00;24.65;;;;;;;3.28;100.00;101008.97;4982276;28;20459;-73
2022/12/02 02:19:45;;;;;;;57.25;24.00;;;;;;;3.26;100.00;100995.88;4986446;28;20047;-71
2022/12/02 02:22:21;;;;;;;57.08;23.35;;;;;;;3.15;100.00;100972.41;4974183;28;20134;-72
2022/12/02 02:24:47;;;;;;;60.38;24.77;;;;;;;3.32;100.00;100997.56;4981595;28;20057;-73
2022/12/02 02:27:14;;;;;;;58.17;24.73;;;;;;;3.21;100.00;100968.00;4986243;28;20415;-73
2022/12/02 02:29:41;;;;;;;58.55;23.90;;;;;;;3.39;100.00;100991.41;4986594;28;20410;-71
2022/12/02 02:32:07;;;;;;;55.88;23.67;;;;;;;3.32;100.00;100987.97;4981225;28;20054;-70
2022/12/02 02:34:34;;;;;;;54.50;23.63;;;;;;;3.35;100.00;100993.19;4988423;28;20050;-73
2022/12/02 02:37:01;;;;;;;55.92;23.25;;;;;;;3.37;100.00;100993.19;4989449;28;20141;-73
2022/12/02 02:39:28;;;;;;;59.08;24.02;;;;;;;3.41;100.00;100984.44;4989576;28;20093;-73
2022/12/02 02:41:56;;;;;;;60.40;25.10;;;;;;;3.43;100.00;100987.91;4978537;28;20182;-72
2022/12/02 02:44:24;;;;;;;58.63;25.42;;;;;;;3.40;100.00;100983.56;4987760;28;20490;-73
2022/12/02 02:46:51;;;;;;;56.92;23.67;;;;;;;3.40;100.00;100988.78;4990368;28;20210;-74
2022/12/02 02:49:19;;;;;;;58.00;25.33;;;;;;;3.28;100.00;100956.63;4990890;28;20050;-71
2022/12/02 02:51:45;;;;;;;59.13;24.25;;;;;;;3.43;100.00;100985.28;4981193;28;20423;-71
2022/12/02 02:54:12;;;;;;;59.67;24.00;;;;;;;3.40;100.00;100980.06;4977891;28;20055;-71
2022/12/02 02:56:39;;;;;;;56.85;23.40;;;;;;;3.41;100.00;100973.94;4982220;28;20082;-71
2022/12/02 02:59:05;;;;;;;57.30;23.80;;;;;;;3.29;100.00;100954.00;4988520;28;20046;-72
2022/12/02 03:01:35;;;;;;;57.97;24.63;;;;;;;3.46;100.00;100975.63;4984049;28;20070;-71
2022/12/02 03:04:09;;;;;;;56.78;23.80;;;;;;;3.42;100.00;100973.06;4976227;28;20101;-72
2022/12/02 03:06:38;;;;;;;61.95;24.42;;;;;;;3.28;100.00;100943.53;4981302;28;20054;-69
2022/12/02 03:09:06;;;;;;;56.85;23.58;;;;;;;3.48;100.00;100971.25;4983713;28;20513;-73
2022/12/02 03:11:35;;;;;;;59.53;24.83;;;;;;;3.46;100.00;100961.69;4983139;28;20455;-70
2022/12/02 03:14:03;;;;;;;58.88;23.88;;;;;;;3.51;100.00;100954.66;4981611;28;20579;-71
2022/12/02 03:16:30;;;;;;;54.20;22.95;;;;;;;3.53;100.00;100963.38;4987968;28;20058;-72
2022/12/02 03:18:57;;;;;;;58.33;24.30;;;;;;;3.57;100.00;100956.34;4987175;28;20046;-70
2022/12/02 03:21:25;;;;;;;56.25;22.58;;;;;;;3.61;100.00;100952.84;4984746;28;20053;-71
2022/12/02 03:23:56;;;;;;;55.97;23.13;;;;;;;3.66;100.00;100958.88;4980777;28;20086;-73
2022/12/02 03:26:22;;;;;;;54.67;24.13;;;;;;;3.60;100.00;100946.72;4981890;28;20054;-73
2022/12/02 03:28:49;;;;;;;58.85;23.35;;;;;;;3.54;100.00;100938.91;4984759;28;20050;-74
2022/12/02 03:31:16;;;;;;;55.20;24.02;;;;;;;3.47;100.00;100921.50;4988470;28;20038;-74
2022/12/02 03:33:43;;;;;;;56.75;22.98;;;;;;;3.61;100.00;100947.59;4978190;28;20057;-72
2022/12/02 03:36:11;;;;;;;50.88;23.25;;;;;;;3.48;100.00;100928.50;4983540;28;20085;-74
2022/12/02 03:38:38;;;;;;;56.42;23.33;;;;;;;3.64;100.00;100948.41;4986786;28;20433;-73
2022/12/02 03:41:06;;;;;;;53.33;22.75;;;;;;;3.67;100.00;100947.50;4978362;28;20039;-71
2022/12/02 03:43:32;;;;;;;53.65;23.05;;;;;;;3.63;100.00;100938.81;4975495;28;20415;-73
2022/12/02 03:46:00;;;;;;;56.35;23.25;;;;;;;3.58;100.00;100929.28;4984117;28;20161;-72
2022/12/02 03:48:28;;;;;;;53.42;22.90;;;;;;;3.64;100.00;100939.69;4997304;28;20710;-72
2022/12/02 03:50:55;;;;;;;54.25;22.75;;;;;;;3.65;100.00;100942.28;4985341;28;20050;-69
2022/12/02 03:53:22;;;;;;;55.40;22.60;;;;;;;3.53;100.00;100917.09;4974531;28;20058;-74
2022/12/02 03:55:49;;;;;;;58.13;24.15;;;;;;;3.67;100.00;100939.66;4984146;28;20065;-70
2022/12/02 03:58:16;;;;;;;52.88;22.50;;;;;;;3.53;100.00;100918.84;4985585;28;20043;-73
2022/12/02 04:00:43;;;;;;;55.45;22.60;;;;;;;3.65;100.00;100942.28;4983764;28;20065;-74
2022/12/02 04:03:09;;;;;;;49.17;21.48;;;;;;;3.65;100.00;100926.56;4975811;28;20054;-72
2022/12/02 04:05:36;;;;;;;50.13;21.77;;;;;;;3.51;100.00;100897.06;4983230;28;20097;-69
2022/12/02 04:08:03;;;;;;;51.65;23.40;;;;;;;3.70;100.00;100921.31;4989346;28;20042;-73
2022/12/02 04:10:29;;;;;;;52.13;23.13;;;;;;;3.72;100.00;100928.25;4987705;28;20077;-72
2022/12/02 04:12:56;;;;;;;50.85;22.35;;;;;;;3.70;100.00;100926.53;4968945;28;20146;-75
2022/12/02 04:15:23;;;;;;;52.22;22.55;;;;;;;3.72;100.00;100922.16;4986860;28;20108;-72
2022/12/02 04:17:49;;;;;;;55.55;23.48;;;;;;;3.72;100.00;100923.03;4986017;28;20052;-75
2022/12/02 04:20:16;;;;;;;56.22;23.52;;;;;;;3.68;100.00;100921.31;4980320;28;20054;-72
2022/12/02 04:22:42;;;;;;;49.75;22.55;;;;;;;3.66;100.00;100911.72;4981067;28;20491;-72
2022/12/02 04:25:09;;;;;;;57.70;23.92;;;;;;;3.63;100.00;100906.53;4987096;28;20054;-74
2022/12/02 04:27:35;;;;;;;56.03;22.73;;;;;;;3.56;100.00;100882.16;4984402;28;20046;-73
2022/12/02 04:30:03;;;;;;;48.50;22.17;;;;;;;3.63;100.00;100903.91;4991138;28;20050;-70
2022/12/02 04:32:29;;;;;;;52.17;22.73;;;;;;;3.64;100.00;100893.41;4983643;28;20246;-69
2022/12/02 04:34:56;;;;;;;57.45;24.05;;;;;;;3.49;100.00;100876.13;4984310;28;20046;-75
2022/12/02 04:37:22;;;;;;;52.88;23.52;;;;;;;3.63;100.00;100902.16;4992880;28;20544;-73
2022/12/02 04:39:49;;;;;;;56.42;23.55;;;;;;;3.52;100.00;100877.84;4991607;28;20165;-73
2022/12/02 04:42:16;;;;;;;54.60;23.05;;;;;;;3.63;100.00;100899.53;4984309;28;20081;-73
2022/12/02 04:44:42;;;;;;;54.53;24.20;;;;;;;3.51;100.00;100895.31;4982776;28;20132;-73
2022/12/02 04:47:09;;;;;;;56.30;23.10;;;;;;;3.51;100.00;100899.66;4989864;28;20158;-73
2022/12/02 04:49:35;;;;;;;57.47;23.73;;;;;;;3.47;100.00;100900.56;4988499;28;20046;-73
2022/12/02 04:52:02;;;;;;;55.55;23.73;;;;;;;3.41;100.00;100901.53;4985930;28;20056;-72
2022/12/02 04:54:29;;;;;;;52.80;22.02;;;;;;;3.45;100.00;100891.91;4979457;28;20062;-73
2022/12/02 04:56:55;;;;;;;53.58;23.08;;;;;;;3.50;100.00;100897.94;4985204;28;20610;-73
2022/12/02 04:59:22;;;;;;;51.85;22.20;;;;;;;3.38;100.00;100879.72;4988731;28;20058;-72
2022/12/02 05:01:48;;;;;;;51.80;22.73;;;;;;;3.52;100.00;100890.94;4986039;28;20232;-73
2022/12/02 05:04:15;;;;;;;50.05;22.92;;;;;;;3.50;100.00;100893.56;4980747;28;20519;-71
2022/12/02 05:06:42;;;;;;;52.33;23.08;;;;;;;3.48;100.00;100891.84;4985927;28;20111;-72
2022/12/02 05:09:08;;;;;;;53.60;23.00;;;;;;;3.45;100.00;100886.66;4988932;28;20414;-70
2022/12/02 05:11:37;;;;;;;53.08;23.63;;;;;;;3.46;100.00;100888.41;4986172;28;20511;-72
2022/12/02 05:14:04;;;;;;;51.25;22.42;;;;;;;3.50;100.00;100884.84;4980721;28;20058;-74
2022/12/02 05:16:30;;;;;;;53.75;23.65;;;;;;;3.46;100.00;100881.38;4986692;28;20042;-73
2022/12/02 05:18:57;;;;;;;53.17;22.90;;;;;;;3.42;100.00;100886.69;4989266;28;20062;-73
2022/12/02 05:21:24;;;;;;;54.08;23.70;;;;;;;3.38;100.00;100885.84;4981011;28;20081;-71
2022/12/02 05:23:50;;;;;;;50.90;22.73;;;;;;;3.28;100.00;100859.78;4975117;28;20835;-72
2022/12/02 05:26:17;;;;;;;53.78;22.80;;;;;;;3.34;100.00;100883.25;4981947;28;20139;-72
2022/12/02 05:28:43;;;;;;;50.88;22.48;;;;;;;3.39;100.00;100877.09;4988994;28;20043;-74
2022/12/02 05:31:10;;;;;;;52.20;21.90;;;;;;;3.43;100.00;100885.81;4990151;28;20141;-72
2022/12/02 05:33:37;;;;;;;50.80;22.08;;;;;;;3.45;100.00;100877.06;4978619;28;20066;-69
2022/12/02 05:36:04;;;;;;;50.88;22.85;;;;;;;3.45;100.00;100884.03;4982133;28;20136;-72
2022/12/02 05:38:30;;;;;;;51.55;22.17;;;;;;;3.45;100.00;100881.41;4989335;28;20085;-72
2022/12/02 05:40:57;;;;;;;53.85;22.92;;;;;;;3.47;100.00;100888.34;4980729;28;20062;-72
2022/12/02 05:43:25;;;;;;;53.33;23.13;;;;;;;3.45;100.00;100878.81;4977017;28;20064;-72
2022/12/02 05:45:56;;;;;;;55.58;23.25;;;;;;;3.42;100.00;100887.56;4983729;28;20054;-72
2022/12/02 05:48:24;;;;;;;53.55;23.45;;;;;;;3.36;100.00;100889.34;4987018;28;20089;-75
2022/12/02 05:50:52;;;;;;;56.70;24.00;;;;;;;3.16;100.00;100860.75;4985901;28;20046;-73
2022/12/02 05:53:25;;;;;;;54.72;23.90;;;;;;;3.24;100.00;100885.09;4981085;28;20069;-73
2022/12/02 05:55:53;;;;;;;50.92;23.02;;;;;;;3.15;100.00;100883.41;4985254;28;20505;-74
2022/12/02 05:58:20;;;;;;;58.65;24.40;;;;;;;3.11;100.00;100889.59;4990744;28;20060;-74
2022/12/02 06:00:55;;;;;;;58.97;23.65;;;;;;;3.06;100.00;100887.88;4990890;28;20121;-74
2022/12/02 06:03:22;;;;;;;55.80;23.00;;;;;;;3.10;100.00;100890.47;4978040;28;20478;-71
2022/12/02 06:05:52;;;;;;;51.70;23.42;;;;;;;3.11;100.00;100892.19;4988343;28;20560;-73
2022/12/02 06:08:21;;;;;;;55.53;23.85;;;;;;;3.05;100.00;100891.38;4990365;28;20550;-73
2022/12/02 06:10:53;;;;;;;56.10;23.63;;;;;;;2.94;100.00;100888.00;4978100;28;20073;-74
2022/12/02 06:13:24;;;;;;;57.15;23.70;;;;;;;2.93;100.00;100883.63;4978291;28;20066;-70
2022/12/02 06:15:51;;;;;;;55.35;23.25;;;;;;;2.90;100.00;100894.97;4985860;28;20133;-75
2022/12/02 06:18:21;;;;;;;55.40;23.50;;;;;;;2.86;100.00;100892.41;4992836;28;20486;-74
2022/12/02 06:20:55;;;;;;;51.65;23.30;;;;;;;2.75;100.00;100874.19;4988294;28;20049;-75
2022/12/02 06:23:24;;;;;;;51.65;22.17;;;;;;;2.86;100.00;100895.88;4985992;28;20061;-73
2022/12/02 06:25:53;;;;;;;46.33;20.95;;;;;;;2.86;100.00;100895.00;4986262;28;20101;-73
2022/12/02 06:28:28;;;;;;;47.50;20.67;;;;;;;2.84;100.00;100892.41;4983105;28;20085;-71
2022/12/02 06:31:08;;;;;;;46.22;21.50;;;;;;;2.85;100.00;100899.38;4990779;28;20046;-73
2022/12/02 06:33:37;;;;;;;41.25;20.23;;;;;;;2.69;100.00;100867.22;4980448;28;20090;-73
2022/12/02 06:36:10;;;;;;;42.92;20.23;;;;;;;2.66;100.00;100871.66;4996736;28;20137;-68
2022/12/02 06:38:59;;;;;;;41.47;19.83;;;;;;;2.78;100.00;100892.47;4994158;28;20482;-75
2022/12/02 06:41:35;;;;;;;48.42;21.02;;;;;;;2.75;100.00;100895.97;4988821;28;20137;-72
2022/12/02 06:46:59;;;;;;;42.30;19.98;;;;;;;2.66;100.00;100900.41;4990390;28;20051;-72
2022/12/02 06:49:36;;;;;;;44.40;20.65;;;;;;;2.61;100.00;100904.78;4990998;28;20058;-72
2022/12/02 06:52:20;;;;;;;40.40;19.63;;;;;;;2.64;100.00;100889.09;4984163;28;20062;-72
2022/12/02 06:54:46;;;;;;;37.83;19.63;;;;;;;2.65;100.00;100896.06;4975292;28;20153;-70
2022/12/02 06:57:17;;;;;;;36.30;18.45;;;;;;;2.72;100.00;100887.28;4989728;28;20046;-73
2022/12/02 06:59:46;;;;;;;;;;;;;;;2.76;100.00;100894.22;4981627;28;20061;-73
2022/12/02 07:02:25;;;;;;;41.33;19.13;;;;;;;2.74;100.00;100893.38;4975731;28;20037;-72
2022/12/02 07:04:54;;;;;;;36.10;18.40;;;;;;;2.74;100.00;100894.22;4969711;28;20046;-73
2022/12/02 07:07:22;;;;;;;38.42;18.70;;;;;;;2.72;100.00;100889.88;4980749;28;20057;-73
2022/12/02 07:10:07;;;;;;;40.85;19.08;;;;;;;2.78;100.00;100887.25;4984204;28;20108;-72
2022/12/02 07:12:38;;;;;;;35.22;18.55;;;;;;;2.65;100.00;100864.69;4977662;28;20054;-72
2022/12/02 07:15:25;;;;;;;42.08;19.15;;;;;;;2.60;100.00;100867.31;4975892;28;20136;-72
2022/12/02 07:17:55;;;;;;;34.75;17.33;;;;;;;2.70;100.00;100900.34;4977294;28;20483;-74
2022/12/02 07:20:29;;;;;;;36.67;17.87;;;;;;;2.77;100.00;100893.34;4984851;28;20133;-73
2022/12/02 07:23:00;;;;;;;36.63;18.10;;;;;;;2.84;100.00;100895.03;4973549;28;20493;-71
2022/12/02 07:25:44;;;;;;;34.22;17.88;;;;;;;2.74;100.00;100896.84;4974149;28;20090;-70
2022/12/02 07:28:32;;;;;;;37.63;18.48;;;;;;;2.75;100.00;100895.09;4975230;28;20046;-73
2022/12/02 07:31:27;;;;;;;37.58;18.60;;;;;;;2.75;100.00;100895.09;4971229;28;21127;-71
2022/12/02 07:33:54;;;;;;;37.00;17.77;;;;;;;2.58;100.00;100876.03;4976404;28;20054;-68
2022/12/02 07:36:21;;;;;;;38.22;18.63;;;;;;;2.61;100.00;100873.41;4982998;28;20078;-73
2022/12/02 07:38:50;;;;;;;32.92;17.13;;;;;;;2.71;100.00;100880.31;4978004;28;20125;-72
2022/12/02 07:41:33;;;;;;;37.30;19.08;;;;;;;2.70;100.00;100883.78;4982037;28;20514;-73
2022/12/02 07:44:03;;;;;;;35.60;17.03;;;;;;;2.63;100.00;100871.66;4969750;28;20128;-70
2022/12/02 07:46:29;;;;;;;35.78;18.05;;;;;;;2.56;100.00;100872.56;4977093;28;20352;-74
2022/12/02 07:48:56;;;;;;;35.40;17.52;;;;;;;2.59;100.00;100890.84;4972867;28;20574;-73
2022/12/02 07:51:23;;;;;;;33.85;17.88;;;;;;;2.59;100.00;100889.09;4973678;28;20427;-71
2022/12/02 07:53:50;;;;;;;34.60;16.70;;;;;;;2.43;100.00;100871.78;4969143;28;20146;-75
2022/12/02 07:56:17;;;;;;;33.40;17.00;;;;;;;2.29;100.00;100861.41;4968491;28;20160;-74
2022/12/02 07:58:44;;;;;;;31.83;16.95;;;;;;;2.42;100.00;100897.06;4975062;28;20211;-73
2022/12/02 08:01:30;;;;;;;33.28;17.20;;;;;;;2.38;100.00;100882.25;4982870;28;20054;-74
2022/12/02 08:03:57;;;;;;;39.35;19.13;;;;;;;2.46;100.00;100885.72;4976023;28;20474;-73
2022/12/02 08:06:23;;;;;;;36.65;17.85;;;;;;;2.51;100.00;100893.53;4979826;28;20417;-74
2022/12/02 08:08:50;;;;;;;35.10;17.38;;;;;;;2.54;100.00;100892.63;4980846;28;20415;-73
2022/12/02 08:11:17;;;;;;;33.33;16.48;;;;;;;2.54;100.00;100892.63;4979916;28;20051;-75
2022/12/02 08:13:43;;;;;;;36.25;17.83;;;;;;;2.53;100.00;100890.88;4968467;28;20121;-73
2022/12/02 08:16:10;;;;;;;32.13;16.77;;;;;;;2.49;100.00;100890.06;4972727;28;20077;-74
2022/12/02 08:18:37;;;;;;;31.08;16.38;;;;;;;2.36;100.00;100870.09;4975693;28;20046;-73
2022/12/02 08:21:06;;;;;;;31.45;16.98;;;;;;;2.49;100.00;100890.06;4972259;28;20073;-71
2022/12/02 08:23:35;;;;;;;32.88;16.63;;;;;;;2.50;100.00;100893.53;4975016;28;20097;-69
2022/12/02 08:26:02;;;;;;;30.55;16.25;;;;;;;2.48;100.00;100890.94;4969610;28;20617;-72
2022/12/02 08:28:30;;;;;;;31.88;15.48;;;;;;;2.47;100.00;100891.81;4976170;28;20054;-73
2022/12/02 08:30:56;;;;;;;32.58;17.20;;;;;;;2.48;100.00;100898.78;4976592;28;20053;-74
2022/12/02 08:33:23;;;;;;;35.25;17.17;;;;;;;2.49;100.00;100889.19;4968086;28;20070;-73
2022/12/02 08:35:50;;;;;;;33.88;16.92;;;;;;;2.28;100.00;100869.25;4977009;28;20077;-72
2022/12/02 08:38:16;;;;;;;32.78;16.23;;;;;;;2.38;100.00;100887.47;4986352;28;20050;-75
2022/12/02 08:40:43;;;;;;;32.40;16.98;;;;;;;2.41;100.00;100884.84;4983894;28;20141;-71
2022/12/02 08:43:10;;;;;;;35.10;17.85;;;;;;;2.45;100.00;100893.56;4980279;28;20494;-74
2022/12/02 08:45:37;;;;;;;34.28;16.70;;;;;;;2.40;100.00;100901.41;4965666;28;20485;-74
2022/12/02 08:48:03;;;;;;;33.70;17.33;;;;;;;2.37;100.00;100898.81;4972999;28;20054;-74
2022/12/02 08:50:30;;;;;;;33.45;17.02;;;;;;;2.40;100.00;100890.97;4967142;28;20057;-71
2022/12/02 08:52:57;;;;;;;33.08;16.55;;;;;;;2.40;100.00;100875.28;4966969;28;20424;-70
2022/12/02 08:55:25;;;;;;;32.17;17.17;;;;;;;2.52;100.00;100886.56;4970536;28;20513;-72
2022/12/02 08:57:52;;;;;;;32.72;16.33;;;;;;;2.56;100.00;100888.25;4972544;28;20487;-75
2022/12/02 09:00:18;;;;;;;31.40;16.42;;;;;;;2.52;100.00;100883.94;4978420;28;20134;-76
2022/12/02 09:02:45;;;;;;;32.28;17.30;;;;;;;2.55;100.00;100887.38;4975491;28;20054;-71
2022/12/02 09:05:12;;;;;;;32.10;17.30;;;;;;;2.47;100.00;100882.22;4967378;28;20046;-73
2022/12/02 09:07:38;;;;;;;32.95;16.65;;;;;;;2.47;100.00;100890.06;4979632;28;20141;-75
2022/12/02 09:10:07;;;;;;;32.95;17.63;;;;;;;2.32;100.00;100866.63;4988120;28;20462;-70
2022/12/02 09:12:34;;;;;;;31.40;15.98;;;;;;;2.40;100.00;100882.25;4983864;28;20064;-74
2022/12/02 09:15:00;;;;;;;30.80;15.85;;;;;;;2.45;100.00;100889.19;4982599;28;20054;-73
2022/12/02 09:17:27;;;;;;;30.67;16.25;;;;;;;2.45;100.00;100886.59;4983661;28;20065;-73
2022/12/02 09:19:53;;;;;;;30.38;16.38;;;;;;;2.48;100.00;100890.94;4976219;28;20059;-70
2022/12/02 09:22:20;;;;;;;30.50;16.48;;;;;;;2.50;100.00;100883.94;4973733;28;20089;-73
2022/12/02 09:24:47;;;;;;;30.88;16.45;;;;;;;2.54;100.00;100888.25;4978124;28;20042;-72
2022/12/02 09:27:14;;;;;;;30.95;15.95;;;;;;;2.61;100.00;100883.88;4985402;28;20088;-75
2022/12/02 09:29:41;;;;;;;31.73;16.50;;;;;;;2.49;100.00;100863.91;4980394;28;20136;-69
2022/12/02 09:32:08;;;;;;;29.75;16.58;;;;;;;2.59;100.00;100885.63;4986283;28;20410;-71
2022/12/02 09:34:35;;;;;;;30.52;16.30;;;;;;;2.63;100.00;100892.56;4970308;28;20051;-75
2022/12/02 09:37:01;;;;;;;33.22;16.45;;;;;;;2.62;100.00;100878.63;4972257;28;20447;-72
2022/12/02 09:39:28;;;;;;;33.33;16.60;;;;;;;2.56;100.00;100859.50;4981500;28;20085;-70
2022/12/02 09:42:01;;;;;;;32.08;16.23;;;;;;;2.57;100.00;100871.69;4978782;28;20242;-73
2022/12/02 09:44:28;;;;;;;29.88;16.27;;;;;;;2.48;100.00;100849.09;4984379;28;20169;-70
2022/12/02 09:46:54;;;;;;;33.28;16.60;;;;;;;2.63;100.00;100875.16;4975641;28;20058;-75
2022/12/02 09:49:21;;;;;;;30.60;15.63;;;;;;;2.60;100.00;100874.28;4989013;28;20068;-75
2022/12/02 09:51:48;;;;;;;31.45;16.45;;;;;;;2.63;100.00;100871.66;4982158;28;20123;-70
2022/12/02 09:54:16;;;;;;;29.83;16.23;;;;;;;2.70;100.00;100878.56;4984461;28;20392;-74
2022/12/02 09:56:42;;;;;;;30.48;15.88;;;;;;;2.47;100.00;100829.06;4983616;28;20096;-75
2022/12/02 09:59:14;;;;;;;31.08;17.08;;;;;;;2.74;100.00;100877.66;4984632;28;20044;-73
2022/12/02 10:01:47;;;;;;;28.55;16.23;;;;;;;2.73;100.00;100879.41;4987486;28;20048;-74
2022/12/02 10:04:20;;;;;;;28.23;15.10;;;;;;;2.68;100.00;100878.56;4977256;28;20481;-70
2022/12/02 10:06:47;;;;;;;27.88;14.93;;;;;;;2.60;100.00;100876.91;4979851;28;20072;-74
2022/12/02 10:09:27;;;;;;;31.08;16.73;;;;;;;2.43;100.00;100848.25;4983299;28;20841;-74
2022/12/02 10:11:53;;;;;;;28.60;15.40;;;;;;;2.55;100.00;100868.22;4978811;28;20054;-75
2022/12/02 10:14:21;;;;;;;28.10;15.63;;;;;;;2.55;100.00;100868.22;4982608;28;20054;-73
2022/12/02 10:16:49;;;;;;;27.48;15.70;;;;;;;2.47;100.00;100860.44;4982113;28;20050;-73
2022/12/02 10:19:18;;;;;;;30.23;16.02;;;;;;;2.40;100.00;100851.75;4987281;28;20052;-72
2022/12/02 10:21:46;;;;;;;29.50;15.35;;;;;;;2.50;100.00;100867.41;4985247;28;20082;-75
2022/12/02 10:24:12;;;;;;;28.67;15.75;;;;;;;2.38;100.00;100839.56;4987604;28;20479;-71
2022/12/02 10:26:44;;;;;;;31.48;15.57;;;;;;;2.57;100.00;100866.47;4978614;28;20104;-75
2022/12/02 10:29:32;;;;;;;29.05;16.05;;;;;;;2.43;100.00;100833.44;4983860;28;20064;-71
2022/12/02 10:32:01;;;;;;;27.17;15.57;;;;;;;2.55;100.00;100849.91;4982052;28;20095;-73
2022/12/02 10:34:30;;;;;;;26.83;15.18;;;;;;;2.64;100.00;100855.97;4980742;28;20049;-73
2022/12/02 10:37:15;;;;;;;29.13;14.98;;;;;;;2.67;100.00;100855.09;4974257;28;20042;-76
2022/12/02 10:39:41;;;;;;;29.08;15.38;;;;;;;2.49;100.00;100835.16;4984239;28;20050;-75
2022/12/02 10:42:16;;;;;;;28.55;15.27;;;;;;;2.59;100.00;100849.03;4981831;28;20069;-77
2022/12/02 10:44:44;;;;;;;27.95;14.65;;;;;;;2.59;100.00;100849.88;4975894;28;20564;-73
2022/12/02 10:47:18;;;;;;;31.65;16.17;;;;;;;2.61;100.00;100847.28;4974471;28;20109;-72
2022/12/02 10:49:54;;;;;;;29.83;16.20;;;;;;;2.57;100.00;100824.63;4977040;28;20043;-69
2022/12/02 10:52:44;;;;;;;28.27;15.38;;;;;;;2.76;100.00;100841.91;4980274;28;20141;-75
2022/12/02 10:55:11;;;;;;;28.43;15.10;;;;;;;2.79;100.00;100840.16;4967723;28;20507;-72
2022/12/02 10:57:38;;;;;;;29.55;15.52;;;;;;;2.76;100.00;100828.84;4983300;28;20060;-74
2022/12/02 11:00:19;;;;;;;27.63;15.40;;;;;;;2.86;100.00;100835.72;4983768;28;20046;-73
2022/12/02 11:02:48;;;;;;;25.65;14.65;;;;;;;2.74;100.00;100823.63;4976623;28;20578;-76
2022/12/02 11:05:22;;;;;;;32.30;16.75;;;;;;;2.84;100.00;100834.88;4974020;28;20146;-73
2022/12/02 11:07:55;;;;;;;25.73;14.43;;;;;;;2.77;100.00;100817.50;4987696;28;20462;-77
2022/12/02 11:10:25;;;;;;;26.95;14.90;;;;;;;2.87;100.00;100834.84;4988087;28;20047;-76
2022/12/02 11:12:51;;;;;;;25.85;14.82;;;;;;;2.80;100.00;100827.94;4985908;28;20077;-76
2022/12/02 11:15:40;;;;;;;27.45;15.10;;;;;;;2.70;100.00;100824.53;4979449;28;20097;-74
2022/12/02 11:18:31;;;;;;;28.48;15.35;;;;;;;2.65;100.00;100821.09;4980439;28;20146;-76
2022/12/02 11:21:00;;;;;;;23.83;13.85;;;;;;;2.63;100.00;100817.63;4983053;28;20164;-75
2022/12/02 11:23:28;;;;;;;29.10;15.50;;;;;;;2.58;100.00;100801.09;4982631;28;20061;-74
2022/12/02 11:26:03;;;;;;;28.92;14.63;;;;;;;2.60;100.00;100811.53;4971529;28;20958;-74
2022/12/02 11:28:29;;;;;;;28.35;15.90;;;;;;;2.65;100.00;100812.38;4984349;28;20055;-74
2022/12/02 11:31:23;;;;;;;28.25;15.50;;;;;;;2.70;100.00;100807.97;4981397;28;20047;-74
2022/12/02 11:33:54;;;;;;;26.50;15.93;;;;;;;2.66;100.00;100808.88;4977168;28;20098;-75